Time;durP1;ratioP1;P1;durP2;ratioP2;P2;SDS_P1;SDS_P2;PMS_P1;PMS_P2;Temp;Humidity;BMP_temperature;BMP_pressure;BME280_temperature;BME280_humidity;BME280_pressure;Samples;Min_cycle;Max_cycle;Signal;HPM_P1;HPM_P2
2021/10/19 00:01:56;;;;;;;17.63;13.90;;;13.40;99.90;;;;;;5052555;28;20183;-79
2021/10/19 00:04:23;;;;;;;19.60;15.70;;;13.40;99.90;;;;;;5053627;28;20572;-79
2021/10/19 00:06:50;;;;;;;15.98;13.38;;;13.40;99.90;;;;;;5036061;28;20220;-78
2021/10/19 00:09:16;;;;;;;15.85;13.50;;;13.40;99.90;;;;;;5053754;28;20177;-79
2021/10/19 00:11:42;;;;;;;14.97;13.03;;;13.40;99.90;;;;;;5035582;28;20226;-79
2021/10/19 00:14:07;;;;;;;15.97;13.73;;;13.40;99.90;;;;;;5053487;28;21157;-79
2021/10/19 00:16:33;;;;;;;17.77;14.00;;;13.50;99.90;;;;;;5052528;28;20204;-79
2021/10/19 00:19:00;;;;;;;16.33;12.83;;;13.40;99.90;;;;;;5035722;28;20574;-79
2021/10/19 00:21:27;;;;;;;14.40;12.87;;;13.50;99.90;;;;;;5053707;28;20662;-79
2021/10/19 00:23:52;;;;;;;13.70;11.95;;;13.50;99.90;;;;;;5053105;28;20560;-79
2021/10/19 00:26:18;;;;;;;12.53;10.93;;;13.60;99.90;;;;;;5053522;28;20191;-79
2021/10/19 00:28:44;;;;;;;14.23;11.77;;;13.60;99.90;;;;;;5053417;28;20165;-79
2021/10/19 00:31:10;;;;;;;13.73;12.27;;;13.60;99.90;;;;;;5053490;28;20693;-79
2021/10/19 00:33:35;;;;;;;16.23;13.60;;;13.60;99.90;;;;;;5053032;28;20176;-79
2021/10/19 00:36:01;;;;;;;13.10;11.60;;;13.60;99.90;;;;;;5053750;28;20208;-79
2021/10/19 00:38:27;;;;;;;17.73;13.43;;;13.60;99.90;;;;;;5054631;28;20629;-79
2021/10/19 00:40:52;;;;;;;13.73;11.70;;;13.60;99.90;;;;;;5035373;28;20169;-79
2021/10/19 00:43:18;;;;;;;13.93;12.33;;;13.60;99.90;;;;;;5052998;28;20178;-79
2021/10/19 00:45:44;;;;;;;13.27;11.90;;;13.60;99.90;;;;;;5052995;28;20684;-79
2021/10/19 00:48:15;;;;;;;14.65;12.52;;;13.70;99.90;;;;;;5053326;28;20359;-79
2021/10/19 00:50:41;;;;;;;13.50;10.38;;;13.70;99.90;;;;;;5035318;28;20165;-79
2021/10/19 00:53:08;;;;;;;11.87;10.67;;;13.70;99.90;;;;;;5053011;28;20196;-79
2021/10/19 00:55:33;;;;;;;14.98;12.80;;;13.70;99.90;;;;;;5035148;28;20579;-79
2021/10/19 00:58:01;;;;;;;13.73;12.33;;;13.70;99.90;;;;;;5053017;28;20191;-79
2021/10/19 01:00:27;;;;;;;15.43;12.43;;;13.80;99.90;;;;;;5052789;28;20594;-79
2021/10/19 01:02:53;;;;;;;13.43;11.83;;;13.80;99.90;;;;;;5052619;28;20567;-79
2021/10/19 01:05:20;;;;;;;14.00;12.47;;;13.70;99.90;;;;;;5052692;28;21138;-79
2021/10/19 01:07:46;;;;;;;13.80;12.40;;;13.70;99.90;;;;;;5052729;28;20262;-79
2021/10/19 01:10:12;;;;;;;11.50;9.90;;;13.80;99.90;;;;;;5053047;28;20598;-79
2021/10/19 01:12:39;;;;;;;11.48;10.02;;;13.80;99.90;;;;;;5053184;28;21019;-79
2021/10/19 01:15:09;;;;;;;13.98;11.18;;;13.80;99.90;;;;;;5054274;28;20169;-79
2021/10/19 01:17:44;;;;;;;14.50;13.00;;;13.80;99.90;;;;;;5018231;28;20208;-79
2021/10/19 01:20:19;;;;;;;11.70;10.50;;;13.80;99.90;;;;;;5052569;28;20919;-79
2021/10/19 01:22:44;;;;;;;11.43;10.23;;;13.80;99.90;;;;;;5052218;28;20165;-79
2021/10/19 01:25:15;;;;;;;12.10;10.87;;;13.90;99.90;;;;;;5034395;28;20227;-79
2021/10/19 01:27:49;;;;;;;12.80;11.38;;;13.90;99.90;;;;;;5052340;28;21213;-79
2021/10/19 01:30:16;;;;;;;12.93;11.50;;;13.80;99.90;;;;;;5052298;28;20286;-79
2021/10/19 01:32:43;;;;;;;10.82;9.73;;;13.90;99.90;;;;;;5052051;28;20563;-79
2021/10/19 01:35:10;;;;;;;11.77;10.52;;;13.90;99.90;;;;;;5052203;28;20255;-79
2021/10/19 01:37:36;;;;;;;11.60;9.80;;;13.90;99.90;;;;;;5052037;28;20294;-79
2021/10/19 01:40:06;;;;;;;12.20;10.52;;;13.90;99.90;;;;;;5052295;28;20559;-79
2021/10/19 01:42:35;;;;;;;10.55;9.55;;;13.90;99.90;;;;;;5051705;28;20558;-79
2021/10/19 01:45:01;;;;;;;10.50;9.40;;;14.00;99.90;;;;;;5052223;28;20222;-79
2021/10/19 01:47:28;;;;;;;12.10;10.87;;;14.00;99.90;;;;;;5034286;28;20603;-80
2021/10/19 01:49:54;;;;;;;11.70;10.60;;;14.00;99.90;;;;;;5035130;28;21216;-79
2021/10/19 01:52:20;;;;;;;10.87;9.50;;;14.00;99.90;;;;;;5055838;28;20259;-79
2021/10/19 01:54:45;;;;;;;11.43;10.23;;;14.00;99.90;;;;;;5052155;28;20916;-79
2021/10/19 01:57:12;;;;;;;12.90;9.93;;;14.00;99.90;;;;;;5051669;28;20631;-79
2021/10/19 01:59:37;;;;;;;11.33;10.20;;;13.90;99.90;;;;;;5052103;28;20172;-79
2021/10/19 02:02:04;;;;;;;10.80;9.70;;;13.90;99.90;;;;;;5051420;28;21241;-79
2021/10/19 02:04:29;;;;;;;11.52;10.40;;;13.90;99.90;;;;;;5052010;28;20175;-79
2021/10/19 02:06:55;;;;;;;11.40;9.73;;;13.90;99.90;;;;;;5051666;28;20201;-79
2021/10/19 02:09:21;;;;;;;14.57;10.33;;;13.80;99.90;;;;;;5051738;28;20242;-79
2021/10/19 02:11:46;;;;;;;10.77;9.70;;;13.80;99.90;;;;;;5051077;28;20176;-79
2021/10/19 02:14:12;;;;;;;9.27;8.37;;;13.70;99.90;;;;;;5051799;28;20181;-78
2021/10/19 02:16:38;;;;;;;11.80;10.60;;;13.70;99.90;;;;;;5051614;28;20622;-78
2021/10/19 02:19:03;;;;;;;10.93;9.70;;;13.60;99.90;;;;;;5051568;28;20177;-78
2021/10/19 02:21:29;;;;;;;11.23;10.03;;;13.50;99.90;;;;;;5051790;28;20226;-78
2021/10/19 02:23:54;;;;;;;11.93;10.00;;;13.50;99.90;;;;;;5051218;28;20169;-77
2021/10/19 02:26:20;;;;;;;12.73;11.53;;;13.40;99.90;;;;;;5033276;28;20591;-78
2021/10/19 02:28:46;;;;;;;13.83;10.83;;;13.30;99.90;;;;;;5052569;28;20187;-78
2021/10/19 02:31:12;;;;;;;13.40;11.60;;;13.20;99.90;;;;;;5051528;28;20244;-78
2021/10/19 02:33:38;;;;;;;12.93;10.82;;;13.10;99.90;;;;;;5033073;28;20207;-78
2021/10/19 02:36:04;;;;;;;12.37;11.17;;;13.10;99.90;;;;;;5051204;28;20589;-78
2021/10/19 02:38:29;;;;;;;12.43;11.03;;;13.00;99.90;;;;;;5051263;28;20575;-78
2021/10/19 02:40:55;;;;;;;10.53;9.17;;;13.00;99.90;;;;;;5051488;28;20564;-78
2021/10/19 02:43:21;;;;;;;13.80;10.63;;;12.90;99.90;;;;;;5050913;28;20168;-77
2021/10/19 02:45:47;;;;;;;16.10;12.03;;;12.90;99.90;;;;;;5051263;28;20203;-77
2021/10/19 02:48:12;;;;;;;12.38;11.18;;;12.90;99.90;;;;;;5051128;28;20161;-77
2021/10/19 02:50:38;;;;;;;14.63;11.27;;;12.90;99.90;;;;;;5051310;28;20175;-77
2021/10/19 02:53:04;;;;;;;10.43;9.33;;;12.90;99.90;;;;;;5050972;28;20179;-77
2021/10/19 02:55:29;;;;;;;12.93;11.47;;;12.90;99.90;;;;;;5051045;28;20153;-77
2021/10/19 02:57:55;;;;;;;13.97;11.30;;;12.90;99.90;;;;;;5051345;28;20326;-78
2021/10/19 03:00:21;;;;;;;15.20;13.70;;;12.80;99.90;;;;;;5051032;28;20252;-78
2021/10/19 03:02:47;;;;;;;14.03;12.10;;;12.80;99.90;;;;;;5050832;28;20169;-78
2021/10/19 03:05:13;;;;;;;15.87;13.80;;;12.80;99.90;;;;;;5052350;28;20583;-77
2021/10/19 03:07:38;;;;;;;16.00;13.40;;;12.80;99.90;;;;;;5051218;28;20226;-77
2021/10/19 03:10:05;;;;;;;15.97;14.27;;;12.80;99.90;;;;;;5050965;28;20555;-77
2021/10/19 03:12:30;;;;;;;14.48;12.98;;;12.90;99.90;;;;;;5050838;28;20180;-77
2021/10/19 03:14:56;;;;;;;17.53;14.57;;;12.90;99.90;;;;;;5050905;28;20169;-77
2021/10/19 03:17:22;;;;;;;17.03;15.27;;;12.80;99.90;;;;;;5050851;28;20205;-78
2021/10/19 03:19:47;;;;;;;15.23;13.63;;;12.80;99.90;;;;;;5050779;28;20591;-77
2021/10/19 03:22:13;;;;;;;16.50;13.43;;;12.80;99.90;;;;;;5032969;28;20173;-78
2021/10/19 03:24:39;;;;;;;18.80;14.93;;;12.80;99.90;;;;;;5050477;28;20176;-78
2021/10/19 03:27:05;;;;;;;16.90;15.20;;;12.80;99.90;;;;;;5050900;28;20189;-78
2021/10/19 03:29:31;;;;;;;18.10;16.13;;;12.80;99.90;;;;;;5050744;28;20172;-77
2021/10/19 03:31:56;;;;;;;17.57;15.77;;;12.80;99.90;;;;;;5032848;28;20927;-78
2021/10/19 03:34:22;;;;;;;20.67;16.10;;;12.80;99.90;;;;;;5033085;28;20654;-78
2021/10/19 03:36:48;;;;;;;16.50;14.63;;;12.80;99.90;;;;;;5051649;28;20685;-77
2021/10/19 03:39:14;;;;;;;18.13;15.57;;;12.80;99.90;;;;;;5054602;28;20169;-77
2021/10/19 03:41:39;;;;;;;19.90;17.77;;;12.80;99.90;;;;;;5054022;28;20165;-78
2021/10/19 03:44:05;;;;;;;16.63;13.90;;;12.80;99.90;;;;;;5055159;28;20628;-78
2021/10/19 03:46:31;;;;;;;17.83;14.57;;;12.80;99.90;;;;;;5054150;28;20193;-78
2021/10/19 03:48:56;;;;;;;14.97;13.37;;;12.90;99.90;;;;;;5054373;28;20174;-78
2021/10/19 03:51:22;;;;;;;18.37;16.57;;;12.90;99.90;;;;;;5054168;28;20177;-78
2021/10/19 03:53:48;;;;;;;19.93;17.77;;;12.90;99.90;;;;;;5054008;28;20222;-77
2021/10/19 03:56:13;;;;;;;19.77;13.47;;;12.90;99.90;;;;;;5036039;28;20203;-77
2021/10/19 03:58:39;;;;;;;19.87;17.03;;;12.90;99.90;;;;;;5054116;28;20200;-78
2021/10/19 04:01:05;;;;;;;18.93;16.73;;;12.90;99.90;;;;;;5053981;28;20177;-78
2021/10/19 04:03:31;;;;;;;17.63;15.73;;;13.00;99.90;;;;;;5035974;28;20169;-78
2021/10/19 04:05:56;;;;;;;17.40;15.10;;;13.00;99.90;;;;;;5053591;28;20225;-77
2021/10/19 04:08:22;;;;;;;18.13;16.30;;;12.90;99.90;;;;;;5054090;28;20161;-77
2021/10/19 04:10:48;;;;;;;18.97;17.07;;;12.90;99.90;;;;;;5054467;28;20162;-77
2021/10/19 04:13:14;;;;;;;18.07;16.30;;;12.90;99.90;;;;;;5053486;28;20176;-77
2021/10/19 04:15:39;;;;;;;18.97;16.97;;;13.00;99.90;;;;;;5053939;28;20242;-77
2021/10/19 04:18:05;;;;;;;20.60;16.30;;;12.90;99.90;;;;;;5053556;28;20717;-78
2021/10/19 04:20:31;;;;;;;23.10;16.30;;;13.00;99.90;;;;;;5054495;28;20169;-78
2021/10/19 04:22:56;;;;;;;20.57;18.50;;;12.90;99.90;;;;;;5053167;28;20551;-77
2021/10/19 04:25:22;;;;;;;17.07;15.30;;;13.00;99.90;;;;;;5053642;28;20177;-77
2021/10/19 04:27:48;;;;;;;17.10;14.43;;;13.00;99.90;;;;;;5035443;28;20199;-77
2021/10/19 04:30:13;;;;;;;16.63;14.90;;;13.00;99.90;;;;;;5053656;28;20263;-77
2021/10/19 04:32:39;;;;;;;20.43;16.90;;;13.00;99.90;;;;;;5053001;28;20540;-77
2021/10/19 04:35:05;;;;;;;18.83;16.20;;;13.00;99.90;;;;;;5035822;28;20424;-77
2021/10/19 04:37:31;;;;;;;17.97;15.60;;;13.00;99.90;;;;;;5052982;28;20629;-77
2021/10/19 04:39:57;;;;;;;19.13;15.98;;;13.10;99.90;;;;;;5053417;28;20566;-77
2021/10/19 04:42:23;;;;;;;16.30;14.67;;;13.00;99.90;;;;;;5052872;28;20173;-77
2021/10/19 04:44:49;;;;;;;14.67;13.17;;;13.00;99.90;;;;;;5053665;28;20226;-78
2021/10/19 04:47:18;;;;;;;16.23;14.55;;;13.10;99.90;;;;;;5053941;28;20203;-77
2021/10/19 04:49:44;;;;;;;15.60;13.25;;;13.10;99.90;;;;;;5052751;28;20169;-77
2021/10/19 04:52:10;;;;;;;17.33;15.10;;;13.10;99.90;;;;;;5053354;28;20177;-77
2021/10/19 04:54:36;;;;;;;18.70;16.23;;;13.10;99.90;;;;;;5044630;28;20188;-77
2021/10/19 04:57:02;;;;;;;20.27;16.13;;;13.10;99.90;;;;;;5039077;28;20215;-77
2021/10/19 04:59:27;;;;;;;23.57;17.97;;;13.10;99.90;;;;;;5044490;28;20703;-77
2021/10/19 05:01:53;;;;;;;17.33;15.30;;;13.20;99.90;;;;;;5046949;28;20262;-77
2021/10/19 05:04:18;;;;;;;17.60;14.67;;;13.10;99.90;;;;;;5044559;28;20172;-77
2021/10/19 05:06:44;;;;;;;18.20;15.40;;;13.10;99.90;;;;;;5043105;28;20212;-77
2021/10/19 05:09:12;;;;;;;20.42;16.40;;;13.20;99.90;;;;;;5042794;28;20181;-77
2021/10/19 05:11:38;;;;;;;18.30;16.30;;;13.10;99.90;;;;;;5043497;28;20192;-77
2021/10/19 05:14:04;;;;;;;16.50;14.10;;;13.20;99.90;;;;;;5044441;28;20583;-77
2021/10/19 05:16:29;;;;;;;15.47;13.90;;;13.20;99.90;;;;;;5052603;28;20204;-77
2021/10/19 05:18:55;;;;;;;15.00;13.47;;;13.30;99.90;;;;;;5052553;28;20688;-77
2021/10/19 05:21:21;;;;;;;18.80;16.80;;;13.20;99.90;;;;;;5052479;28;20196;-77
2021/10/19 05:23:46;;;;;;;18.80;15.50;;;13.20;99.90;;;;;;5052134;28;20153;-77
2021/10/19 05:26:13;;;;;;;16.90;14.00;;;13.20;99.90;;;;;;5052406;28;20465;-77
2021/10/19 05:28:39;;;;;;;17.90;15.23;;;13.20;99.90;;;;;;5052374;28;20169;-76
2021/10/19 05:31:05;;;;;;;16.93;14.83;;;13.30;99.90;;;;;;5052562;28;20517;-78
2021/10/19 05:33:30;;;;;;;18.60;15.20;;;13.30;99.90;;;;;;5037695;28;20216;-77
2021/10/19 05:35:56;;;;;;;17.40;14.60;;;13.30;99.90;;;;;;5052238;28;20569;-77
2021/10/19 05:38:22;;;;;;;17.03;15.33;;;13.30;99.90;;;;;;5052235;28;20208;-77
2021/10/19 05:40:47;;;;;;;13.83;12.30;;;13.40;99.90;;;;;;5052131;28;20257;-77
2021/10/19 05:43:13;;;;;;;21.67;18.27;;;13.40;99.90;;;;;;5051999;28;20173;-77
2021/10/19 05:45:39;;;;;;;15.90;14.30;;;13.40;99.90;;;;;;5051860;28;20176;-77
2021/10/19 05:48:05;;;;;;;13.77;11.83;;;13.40;99.90;;;;;;5052251;28;20536;-77
2021/10/19 05:50:33;;;;;;;20.60;14.67;;;13.40;99.90;;;;;;5051988;28;20544;-78
2021/10/19 05:52:59;;;;;;;16.05;13.02;;;13.40;99.90;;;;;;5051607;28;20567;-78
2021/10/19 05:55:24;;;;;;;15.70;12.50;;;13.50;99.90;;;;;;5034003;28;20581;-78
2021/10/19 05:57:50;;;;;;;12.30;10.30;;;13.50;99.90;;;;;;5051850;28;20604;-78
2021/10/19 06:00:16;;;;;;;13.83;12.33;;;13.60;99.90;;;;;;5051035;28;20173;-78
2021/10/19 06:02:42;;;;;;;13.80;12.43;;;13.60;99.90;;;;;;5051550;28;20502;-78
2021/10/19 06:05:07;;;;;;;13.47;11.90;;;13.60;99.90;;;;;;5039990;28;20575;-78
2021/10/19 06:07:33;;;;;;;13.70;12.33;;;13.60;99.90;;;;;;5031784;28;20209;-78
2021/10/19 06:09:59;;;;;;;11.83;10.63;;;13.60;99.90;;;;;;5032141;28;20591;-78
2021/10/19 06:12:27;;;;;;;11.77;10.23;;;13.70;99.90;;;;;;5032271;28;20597;-78
2021/10/19 06:14:52;;;;;;;17.13;13.45;;;13.70;99.90;;;;;;5031771;28;20177;-78
2021/10/19 06:17:18;;;;;;;13.63;11.43;;;13.70;99.90;;;;;;5030652;28;20213;-78
2021/10/19 06:19:44;;;;;;;13.53;11.30;;;13.80;99.90;;;;;;5031907;28;20166;-78
2021/10/19 06:22:10;;;;;;;14.63;12.43;;;13.80;99.90;;;;;;5030925;28;20173;-78
2021/10/19 06:24:35;;;;;;;12.77;11.40;;;13.80;99.90;;;;;;5031426;28;20162;-78
2021/10/19 06:27:01;;;;;;;15.47;11.17;;;13.80;99.90;;;;;;5031231;28;20198;-78
2021/10/19 06:29:29;;;;;;;12.03;10.77;;;13.90;99.90;;;;;;5031520;28;20315;-78
2021/10/19 06:31:55;;;;;;;13.00;11.60;;;13.90;99.90;;;;;;5031161;28;20188;-78
2021/10/19 06:34:21;;;;;;;11.50;10.30;;;13.90;99.90;;;;;;5030958;28;20568;-79
2021/10/19 06:36:47;;;;;;;10.73;9.63;;;13.90;99.90;;;;;;5031135;28;20628;-78
2021/10/19 06:39:13;;;;;;;10.73;9.63;;;13.90;99.90;;;;;;5030974;28;20569;-78
2021/10/19 06:41:38;;;;;;;10.97;9.87;;;14.00;99.90;;;;;;5031059;28;20251;-79
2021/10/19 06:44:04;;;;;;;12.03;10.93;;;14.00;99.90;;;;;;5031059;28;20914;-78
2021/10/19 06:46:30;;;;;;;11.20;9.50;;;14.00;99.90;;;;;;5031269;28;20197;-79
2021/10/19 06:48:56;;;;;;;10.43;9.07;;;14.00;99.90;;;;;;5032437;28;20192;-78
2021/10/19 06:51:22;;;;;;;11.73;10.67;;;14.00;99.90;;;;;;5031195;28;20170;-78
2021/10/19 06:53:48;;;;;;;9.47;7.90;;;14.10;99.90;;;;;;5030706;28;20669;-79
2021/10/19 06:56:14;;;;;;;12.10;10.27;;;14.10;99.90;;;;;;5031183;28;20613;-79
2021/10/19 06:58:39;;;;;;;11.20;9.97;;;14.10;99.90;;;;;;5030962;28;20201;-79
2021/10/19 07:01:05;;;;;;;10.93;9.80;;;14.10;99.90;;;;;;5030914;28;20506;-79
2021/10/19 07:03:32;;;;;;;9.67;8.73;;;14.10;99.90;;;;;;5030798;28;20170;-79
2021/10/19 07:06:02;;;;;;;7.80;6.93;;;14.20;99.90;;;;;;5030431;28;20631;-78
2021/10/19 07:08:29;;;;;;;9.97;8.00;;;14.20;99.90;;;;;;5031039;28;20573;-78
2021/10/19 07:10:55;;;;;;;8.97;7.60;;;14.30;99.90;;;;;;5030865;28;20569;-78
2021/10/19 07:13:24;;;;;;;8.27;7.50;;;14.30;99.90;;;;;;5016392;28;20952;-79
2021/10/19 07:15:53;;;;;;;8.67;7.87;;;14.40;99.90;;;;;;5033884;28;20587;-79
2021/10/19 07:18:20;;;;;;;9.37;7.30;;;14.40;99.90;;;;;;5035162;28;21010;-79
2021/10/19 07:20:45;;;;;;;7.37;6.67;;;14.50;99.90;;;;;;5034703;28;21060;-79
2021/10/19 07:23:11;;;;;;;7.00;6.40;;;14.50;99.90;;;;;;5032697;28;20556;-79
2021/10/19 07:25:38;;;;;;;6.73;6.13;;;14.50;99.90;;;;;;5036571;28;20178;-79
2021/10/19 07:28:04;;;;;;;8.00;7.13;;;14.50;99.90;;;;;;5034722;28;20194;-78
2021/10/19 07:30:30;;;;;;;6.97;6.23;;;14.60;99.90;;;;;;5017169;28;20576;-79
2021/10/19 07:32:56;;;;;;;7.57;6.87;;;14.60;99.90;;;;;;5034333;28;20931;-78
2021/10/19 07:35:22;;;;;;;6.80;6.20;;;14.60;99.90;;;;;;5036607;28;20181;-79
2021/10/19 07:37:48;;;;;;;7.03;6.33;;;14.70;99.90;;;;;;5037323;28;20201;-79
2021/10/19 07:40:15;;;;;;;7.13;6.50;;;14.70;99.90;;;;;;5034921;28;20583;-79
2021/10/19 07:42:41;;;;;;;5.80;5.30;;;14.70;99.90;;;;;;5034104;28;20560;-78
2021/10/19 07:45:11;;;;;;;5.47;4.97;;;14.80;99.90;;;;;;5034573;28;20573;-78
2021/10/19 07:47:44;;;;;;;8.60;5.73;;;14.80;99.90;;;;;;5034596;28;21226;-79
2021/10/19 07:50:12;;;;;;;5.97;5.37;;;14.80;99.90;;;;;;5034598;28;20579;-79
2021/10/19 07:52:38;;;;;;;6.03;4.93;;;14.80;99.90;;;;;;5034220;28;20556;-78
2021/10/19 07:55:05;;;;;;;5.70;5.10;;;14.90;99.90;;;;;;5016714;28;20567;-79
2021/10/19 07:57:31;;;;;;;6.27;5.63;;;14.90;99.90;;;;;;5034056;28;20671;-79
2021/10/19 07:59:57;;;;;;;8.03;6.20;;;14.90;99.90;;;;;;5033882;28;20606;-80
2021/10/19 08:02:22;;;;;;;5.63;5.13;;;14.90;99.90;;;;;;5035837;28;20240;-79
2021/10/19 08:04:48;;;;;;;6.53;5.93;;;14.90;99.90;;;;;;5034045;28;20177;-79
2021/10/19 08:07:14;;;;;;;6.73;6.13;;;14.90;99.90;;;;;;5033825;28;20292;-79
2021/10/19 08:09:39;;;;;;;8.73;5.10;;;14.90;99.90;;;;;;5033917;28;20180;-79
2021/10/19 08:12:05;;;;;;;5.70;5.20;;;15.00;99.90;;;;;;5033602;28;20170;-79
2021/10/19 08:14:31;;;;;;;7.23;5.23;;;15.00;99.90;;;;;;5015948;28;20205;-79
2021/10/19 08:16:57;;;;;;;5.33;4.80;;;15.00;99.90;;;;;;5034639;28;20545;-79
2021/10/19 08:19:22;;;;;;;6.50;5.37;;;15.00;99.90;;;;;;5033879;28;20572;-79
2021/10/19 08:21:48;;;;;;;5.90;5.30;;;15.10;99.90;;;;;;5033327;28;20215;-79
2021/10/19 08:24:14;;;;;;;4.57;4.17;;;15.10;99.90;;;;;;5032885;28;20166;-80
2021/10/19 08:26:39;;;;;;;5.50;4.70;;;15.20;99.90;;;;;;5033240;28;20650;-80
2021/10/19 08:29:05;;;;;;;5.87;5.37;;;15.20;99.90;;;;;;5034155;28;20240;-80
2021/10/19 08:31:31;;;;;;;5.50;5.00;;;15.20;99.90;;;;;;5033819;28;20565;-80
2021/10/19 08:33:58;;;;;;;5.77;4.97;;;15.20;99.90;;;;;;5033628;28;20174;-80
2021/10/19 08:36:24;;;;;;;5.83;5.23;;;15.30;99.90;;;;;;5033080;28;21020;-80
2021/10/19 08:38:51;;;;;;;4.83;4.43;;;15.30;99.90;;;;;;5036070;28;20591;-79
2021/10/19 08:41:18;;;;;;;4.77;4.23;;;15.30;99.90;;;;;;5045160;28;20586;-80
2021/10/19 08:43:45;;;;;;;5.80;4.80;;;15.30;99.90;;;;;;5026539;28;20596;-80
2021/10/19 08:46:12;;;;;;;4.23;3.83;;;15.40;99.90;;;;;;5041822;28;21175;-80
2021/10/19 08:48:39;;;;;;;5.30;4.10;;;15.40;99.90;;;;;;5050245;28;20605;-80
2021/10/19 08:51:09;;;;;;;4.37;3.97;;;15.40;99.90;;;;;;5036119;28;20575;-80
2021/10/19 08:53:37;;;;;;;4.30;3.90;;;15.50;99.90;;;;;;5035169;28;20580;-80
2021/10/19 08:56:04;;;;;;;4.40;4.00;;;15.50;99.90;;;;;;5035330;28;20973;-79
2021/10/19 08:58:30;;;;;;;3.40;3.10;;;15.50;99.90;;;;;;5053035;28;20675;-80
2021/10/19 09:01:03;;;;;;;4.97;4.33;;;15.60;99.90;;;;;;5053488;28;20637;-79
2021/10/19 09:03:29;;;;;;;3.47;3.10;;;15.60;99.90;;;;;;5053365;28;20575;-79
2021/10/19 09:05:55;;;;;;;4.70;3.97;;;15.70;99.90;;;;;;5056955;28;20656;-80
2021/10/19 09:08:24;;;;;;;3.10;2.83;;;15.80;99.90;;;;;;5052241;28;20165;-80
2021/10/19 09:10:50;;;;;;;4.80;3.00;;;15.90;99.90;;;;;;5034801;28;20169;-80
2021/10/19 09:13:17;;;;;;;3.33;2.80;;;15.90;99.90;;;;;;5033512;28;20575;-80
2021/10/19 09:15:46;;;;;;;5.03;3.20;;;16.00;99.90;;;;;;5034688;28;20580;-80
2021/10/19 09:18:14;;;;;;;3.20;2.90;;;16.00;99.90;;;;;;5034967;28;20626;-80
2021/10/19 09:20:41;;;;;;;3.30;2.67;;;16.10;99.90;;;;;;5052924;28;20564;-80
2021/10/19 09:23:08;;;;;;;2.70;2.27;;;16.10;99.90;;;;;;5052805;28;20590;-79
2021/10/19 09:25:38;;;;;;;3.57;3.00;;;16.20;99.90;;;;;;5051908;28;20613;-80
2021/10/19 09:28:07;;;;;;;5.40;2.77;;;16.20;99.90;;;;;;5052690;28;21142;-79
2021/10/19 09:30:47;;;;;;;3.10;2.80;;;16.30;99.90;;;;;;5051474;28;20611;-80
2021/10/19 09:33:18;;;;;;;3.40;3.10;;;16.30;99.90;;;;;;5050046;28;21115;-80
2021/10/19 09:35:47;;;;;;;3.57;3.27;;;16.40;99.90;;;;;;5051340;28;20904;-80
2021/10/19 09:38:14;;;;;;;3.73;2.73;;;16.40;99.90;;;;;;5051824;28;20614;-80
2021/10/19 09:40:44;;;;;;;3.70;3.30;;;16.50;99.90;;;;;;5051329;28;20968;-80
2021/10/19 09:43:15;;;;;;;2.40;1.90;;;16.50;99.90;;;;;;5051146;28;21172;-80
2021/10/19 09:45:43;;;;;;;4.33;2.67;;;16.50;99.90;;;;;;5033644;28;20563;-80
2021/10/19 09:48:14;;;;;;;2.77;2.03;;;16.60;99.90;;;;;;5051763;28;20564;-81
2021/10/19 09:50:41;;;;;;;3.10;1.67;;;16.60;99.90;;;;;;5051321;28;20625;-81
2021/10/19 09:53:12;;;;;;;2.73;2.07;;;16.60;99.90;;;;;;5052780;28;20584;-81
2021/10/19 09:55:38;;;;;;;4.13;2.10;;;16.60;99.90;;;;;;5051873;28;20954;-81
2021/10/19 09:58:05;;;;;;;3.53;3.20;;;16.70;99.90;;;;;;5051283;28;20681;-81
2021/10/19 10:00:33;;;;;;;3.30;2.33;;;16.70;99.90;;;;;;5033594;28;20617;-80
2021/10/19 10:03:05;;;;;;;2.73;2.50;;;16.70;99.90;;;;;;5050619;28;20621;-81
2021/10/19 10:08:18;;;;;;;2.23;2.03;;;16.70;99.90;;;;;;5129661;27;20861;-79
2021/10/19 10:10:44;;;;;;;2.87;2.47;;;16.80;99.90;;;;;;5130613;27;20556;-80
2021/10/19 10:13:16;;;;;;;3.20;2.43;;;16.80;99.90;;;;;;5128696;27;20632;-80
2021/10/19 10:15:42;;;;;;;2.50;2.30;;;16.80;99.90;;;;;;5130276;28;20591;-80
2021/10/19 10:18:10;;;;;;;3.27;2.33;;;16.80;99.90;;;;;;5128355;28;20572;-80
2021/10/19 10:20:38;;;;;;;3.87;2.90;;;16.80;99.90;;;;;;5129797;27;20564;-80
2021/10/19 10:23:16;;;;;;;2.20;2.00;;;16.80;99.90;;;;;;5129461;27;20655;-80
2021/10/19 10:25:43;;;;;;;3.50;2.63;;;16.80;99.90;;;;;;5129947;27;20667;-80
2021/10/19 10:28:17;;;;;;;3.70;2.90;;;16.90;99.90;;;;;;5129356;27;20644;-80
2021/10/19 10:30:46;;;;;;;4.63;4.20;;;16.80;99.90;;;;;;5130279;27;20666;-80
2021/10/19 10:33:12;;;;;;;5.70;4.40;;;16.90;99.90;;;;;;5131376;27;20913;-79
2021/10/19 10:35:44;;;;;;;5.17;4.67;;;16.90;99.90;;;;;;5129169;28;20644;-79
2021/10/19 10:38:14;;;;;;;4.30;3.90;;;16.90;99.90;;;;;;5129696;28;20196;-80
2021/10/19 10:40:43;;;;;;;4.10;3.70;;;16.90;99.90;;;;;;5128033;28;20602;-79
2021/10/19 10:43:36;;;;;;;4.00;2.90;;;16.90;99.90;;;;;;5112135;28;20603;-80
2021/10/19 10:46:08;;;;;;;4.57;2.90;;;16.90;99.90;;;;;;5106565;28;20681;-80
2021/10/19 10:48:35;;;;;;;3.30;2.83;;;16.90;99.90;;;;;;5109370;28;20569;-80
2021/10/19 10:51:02;;;;;;;5.17;3.37;;;16.90;99.90;;;;;;5107551;28;20672;-80
2021/10/19 10:53:40;;;;;;;3.90;2.80;;;17.00;99.90;;;;;;5112428;28;20968;-80
2021/10/19 10:56:07;;;;;;;3.50;2.63;;;17.00;99.90;;;;;;5107402;28;20601;-79
2021/10/19 10:58:35;;;;;;;3.30;3.00;;;17.00;99.90;;;;;;5110574;28;20900;-80
2021/10/19 11:01:15;;;;;;;3.73;3.30;;;17.00;99.90;;;;;;5108422;28;20570;-80
2021/10/19 11:03:46;;;;;;;5.87;5.40;;;17.00;99.90;;;;;;5108821;28;20572;-80
2021/10/19 11:06:18;;;;;;;4.00;3.40;;;17.00;99.90;;;;;;5108776;28;20685;-80
2021/10/19 11:08:45;;;;;;;3.73;3.37;;;17.10;99.90;;;;;;5111736;28;20668;-80
2021/10/19 11:11:19;;;;;;;3.20;2.43;;;17.10;99.90;;;;;;5108361;28;20573;-80
2021/10/19 11:13:58;;;;;;;2.43;2.23;;;17.10;99.90;;;;;;5107793;28;21135;-80
2021/10/19 11:16:32;;;;;;;6.43;2.90;;;17.20;99.90;;;;;;5108090;28;20592;-79
2021/10/19 11:19:03;;;;;;;3.40;3.10;;;17.20;99.90;;;;;;5097384;28;20584;-79
2021/10/19 11:21:30;;;;;;;4.20;3.80;;;17.20;99.90;;;;;;5094611;28;20963;-79
2021/10/19 11:23:56;;;;;;;5.70;5.17;;;17.20;99.90;;;;;;5093048;28;20566;-78
2021/10/19 11:26:23;;;;;;;5.47;4.43;;;17.20;99.90;;;;;;5093616;28;20724;-79
2021/10/19 11:28:49;;;;;;;4.00;3.60;;;17.20;99.90;;;;;;5099285;28;20643;-80
2021/10/19 11:31:15;;;;;;;4.40;3.10;;;17.30;99.90;;;;;;5114874;28;21150;-80
2021/10/19 11:33:43;;;;;;;3.43;3.13;;;17.40;99.90;;;;;;5113098;28;20576;-79
2021/10/19 11:36:11;;;;;;;4.13;3.00;;;17.40;99.90;;;;;;5113598;28;20601;-80
2021/10/19 11:38:51;;;;;;;3.00;2.40;;;17.50;99.90;;;;;;5114593;28;20568;-80
2021/10/19 11:41:20;;;;;;;2.60;2.40;;;17.60;99.90;;;;;;5113381;28;20597;-80
2021/10/19 11:43:49;;;;;;;4.40;3.30;;;17.80;99.90;;;;;;5115277;28;20580;-80
2021/10/19 11:46:17;;;;;;;3.63;2.80;;;18.00;99.90;;;;;;5115150;28;20624;-80
2021/10/19 11:48:43;;;;;;;3.50;3.20;;;18.10;99.90;;;;;;5114609;28;20565;-80
2021/10/19 11:51:14;;;;;;;4.90;3.30;;;18.20;99.90;;;;;;5114283;28;20585;-80
2021/10/19 11:53:46;;;;;;;4.80;4.23;;;18.30;99.90;;;;;;5096034;28;20584;-81
2021/10/19 11:56:13;;;;;;;5.77;3.70;;;18.40;99.90;;;;;;5114157;28;21241;-81
2021/10/19 11:58:51;;;;;;;3.50;3.20;;;18.50;99.90;;;;;;5113191;28;20577;-81
2021/10/19 12:01:17;;;;;;;5.60;4.53;;;18.50;99.90;;;;;;5112588;28;20580;-81
2021/10/19 12:03:43;;;;;;;4.70;3.17;;;18.60;99.90;;;;;;5095768;28;20587;-80
2021/10/19 12:06:12;;;;;;;3.67;2.73;;;18.70;99.90;;;;;;5113470;28;20636;-80
2021/10/19 12:08:42;;;;;;;4.77;3.50;;;18.70;99.90;;;;;;5147225;27;20656;-80
2021/10/19 12:11:11;;;;;;;4.73;3.20;;;18.80;99.90;;;;;;5113867;28;20992;-80
2021/10/19 12:13:40;;;;;;;3.37;3.03;;;18.90;99.90;;;;;;5113631;28;20565;-79
2021/10/19 12:16:09;;;;;;;3.53;2.47;;;18.90;99.90;;;;;;5113821;28;20600;-79
2021/10/19 12:18:43;;;;;;;6.73;3.90;;;18.90;99.90;;;;;;5113084;28;21139;-80
2021/10/19 12:21:09;;;;;;;3.73;2.10;;;18.90;99.90;;;;;;5115265;28;20905;-80
2021/10/19 12:23:35;;;;;;;3.83;2.10;;;19.00;99.90;;;;;;5113554;28;20933;-79
2021/10/19 12:26:03;;;;;;;3.57;2.37;;;19.00;99.90;;;;;;5113548;28;20568;-79
2021/10/19 12:28:29;;;;;;;2.13;1.93;;;19.10;99.90;;;;;;5112235;28;20629;-79
2021/10/19 12:30:57;;;;;;;4.13;2.47;;;19.10;99.90;;;;;;5111143;28;20641;-78
2021/10/19 12:33:25;;;;;;;2.90;2.47;;;19.10;99.90;;;;;;5128873;27;21156;-79
2021/10/19 12:35:59;;;;;;;2.37;1.97;;;19.10;99.90;;;;;;5113428;28;21099;-79
2021/10/19 12:38:35;;;;;;;4.67;2.30;;;19.20;99.90;;;;;;5113413;28;20651;-79